createdAt,value
2022-08-04T00:00:59.501Z,27.36
2022-08-04T00:03:41.173Z,27.34
2022-08-04T00:06:16.922Z,27.32
2022-08-04T00:08:50.571Z,27.29
2022-08-04T00:11:22.483Z,27.27
2022-08-04T00:14:04.992Z,27.21
2022-08-04T00:16:37.796Z,27.18
2022-08-04T00:19:11.798Z,27.15
2022-08-04T00:21:42.010Z,27.14
2022-08-04T00:24:14.458Z,27.10
2022-08-04T00:26:41.899Z,27.07
2022-08-04T00:29:08.552Z,27.05
2022-08-04T00:31:56.475Z,27.02
2022-08-04T00:34:27.242Z,26.96
2022-08-04T00:36:54.449Z,26.92
2022-08-04T00:39:21.388Z,26.88
2022-08-04T00:42:24.461Z,26.85
2022-08-04T00:45:09.609Z,26.81
2022-08-04T00:47:50.886Z,26.78
2022-08-04T00:50:44.078Z,26.76
2022-08-04T00:53:49.961Z,26.70
2022-08-04T00:56:19.756Z,26.68
2022-08-04T00:58:52.205Z,26.69
2022-08-04T01:01:37.598Z,26.64
2022-08-04T01:04:11.742Z,26.64
2022-08-04T01:06:58.674Z,26.63
2022-08-04T01:09:45.423Z,26.59
2022-08-04T01:12:33.647Z,26.56
2022-08-04T01:15:06.810Z,26.52
2022-08-04T01:17:36.449Z,26.49
2022-08-04T01:20:08.979Z,26.47
2022-08-04T01:23:10.121Z,26.44
2022-08-04T01:25:54.150Z,26.43
2022-08-04T01:28:30.984Z,26.39
2022-08-04T01:31:01.298Z,26.38
2022-08-04T01:34:03.257Z,26.38
2022-08-04T01:36:24.890Z,26.31
2022-08-04T01:38:54.140Z,26.26
2022-08-04T01:41:32.223Z,26.21
2022-08-04T01:44:04.301Z,26.15
2022-08-04T01:46:33.869Z,26.14
2022-08-04T01:49:02.686Z,26.11
2022-08-04T01:51:34.986Z,26.10
2022-08-04T01:54:09.220Z,26.07
2022-08-04T01:56:36.747Z,26.05
2022-08-04T01:59:03.874Z,26.03
2022-08-04T02:01:36.519Z,25.99
2022-08-04T02:04:21.504Z,25.96
2022-08-04T02:06:59.253Z,25.94
2022-08-04T02:09:28.786Z,25.93
2022-08-04T02:12:03.798Z,25.90
2022-08-04T02:15:13.798Z,25.84
2022-08-04T02:17:43.391Z,25.83
2022-08-04T02:20:23.162Z,25.82
2022-08-04T02:22:54.990Z,25.80
2022-08-04T02:25:26.872Z,25.78
2022-08-04T02:28:28.162Z,25.76
2022-08-04T02:30:57.289Z,25.75
2022-08-04T02:33:38.690Z,25.74
2022-08-04T02:36:09.273Z,25.73
2022-08-04T02:39:00.120Z,25.71
2022-08-04T02:41:28.917Z,25.71
2022-08-04T02:44:02.283Z,25.70
2022-08-04T02:46:29.898Z,25.69
2022-08-04T02:48:57.315Z,25.69
2022-08-04T02:51:28.833Z,25.65
2022-08-04T02:54:01.689Z,25.65
2022-08-04T02:56:31.530Z,25.63
2022-08-04T02:59:03.778Z,25.61
2022-08-04T03:01:31.572Z,25.60
2022-08-04T03:04:24.689Z,25.55
2022-08-04T03:07:22.975Z,25.53
2022-08-04T03:10:10.632Z,25.51
2022-08-04T03:13:01.831Z,25.48
2022-08-04T03:15:46.446Z,25.45
2022-08-04T03:18:31.839Z,25.44
2022-08-04T03:21:36.918Z,25.40
2022-08-04T03:24:26.628Z,25.38
2022-08-04T03:27:10.874Z,25.37
2022-08-04T03:29:56.246Z,25.33
2022-08-04T03:32:41.575Z,25.30
2022-08-04T03:35:32.821Z,25.28
2022-08-04T03:38:17.528Z,25.27
2022-08-04T03:41:57.391Z,25.23
2022-08-04T03:44:38.950Z,25.20
2022-08-04T03:47:29.949Z,25.15
2022-08-04T03:50:12.997Z,25.14
2022-08-04T03:53:20.389Z,25.10
2022-08-04T03:55:54.722Z,25.11
2022-08-04T03:58:40.542Z,25.07
2022-08-04T04:01:13.262Z,25.08
2022-08-04T04:04:18.102Z,25.07
2022-08-04T04:07:35.690Z,25.06
2022-08-04T04:10:26.558Z,25.06
2022-08-04T04:13:33.005Z,25.07
2022-08-04T04:16:26.451Z,25.03
2022-08-04T04:19:20.523Z,24.99
2022-08-04T04:22:11.692Z,24.99
2022-08-04T04:25:03.451Z,25.01
2022-08-04T04:28:44.456Z,25.04
2022-08-04T04:31:27.924Z,25.06
2022-08-04T04:34:16.946Z,25.06
2022-08-04T04:37:17.712Z,25.10
2022-08-04T04:40:06.161Z,25.14
2022-08-04T04:42:35.425Z,25.17
2022-08-04T04:45:21.030Z,25.16
2022-08-04T04:48:08.257Z,25.13
2022-08-04T04:50:46.330Z,25.13
2022-08-04T04:53:45.103Z,25.11
2022-08-04T04:56:39.528Z,25.14
2022-08-04T04:59:11.431Z,25.18
2022-08-04T05:02:00.866Z,25.19
2022-08-04T05:05:04.907Z,25.18
2022-08-04T05:07:40.231Z,25.18
2022-08-04T05:10:33.626Z,25.22
2022-08-04T05:14:36.438Z,25.23
2022-08-04T05:16:35.076Z,25.25
2022-08-04T05:19:23.313Z,25.33
2022-08-04T05:22:04.277Z,25.40
2022-08-04T05:24:37.634Z,25.46
2022-08-04T05:27:12.090Z,25.53
2022-08-04T05:29:47.103Z,25.63
2022-08-04T05:32:16.820Z,25.72
2022-08-04T05:34:54.087Z,25.79
2022-08-04T05:37:22.630Z,25.85
2022-08-04T05:40:04.486Z,25.94
2022-08-04T05:42:34.869Z,26.02
2022-08-04T05:45:03.153Z,26.10
2022-08-04T05:47:32.017Z,26.15
2022-08-04T05:50:02.021Z,26.19
2022-08-04T05:52:31.572Z,26.23
2022-08-04T05:54:59.573Z,26.28
2022-08-04T05:57:26.828Z,26.34
2022-08-04T05:59:58.785Z,26.38
2022-08-04T06:02:27.918Z,26.44
2022-08-04T06:04:56.489Z,26.48
2022-08-04T06:07:23.364Z,26.53
2022-08-04T06:09:51.069Z,26.59
2022-08-04T06:13:00.869Z,26.65
2022-08-04T06:15:28.386Z,26.77
2022-08-04T06:19:40.149Z,26.84
2022-08-04T06:20:53.092Z,26.90
2022-08-04T06:23:26.065Z,26.95
2022-08-04T06:25:57.080Z,27.01
2022-08-04T06:28:24.732Z,27.06
2022-08-04T06:30:53.076Z,27.11
2022-08-04T06:33:54.485Z,27.15
2022-08-04T06:36:20.770Z,27.22
2022-08-04T06:38:47.827Z,27.30
2022-08-04T06:41:25.765Z,27.40
2022-08-04T06:43:53.951Z,27.49
2022-08-04T06:46:21.453Z,27.62
2022-08-04T06:48:50.790Z,27.77
2022-08-04T06:51:28.658Z,27.95
2022-08-04T06:54:04.805Z,28.17
2022-08-04T06:56:35.041Z,28.41
2022-08-04T06:59:03.577Z,28.56
2022-08-04T07:01:31.111Z,28.72
2022-08-04T07:04:01.114Z,28.91
2022-08-04T07:06:27.819Z,29.15
2022-08-04T07:08:56.386Z,29.36
2022-08-04T07:11:24.851Z,29.52
2022-08-04T07:13:53.786Z,29.69
2022-08-04T07:16:22.010Z,29.83
2022-08-04T07:18:57.667Z,29.96
2022-08-04T07:21:24.877Z,30.06
2022-08-04T07:23:53.950Z,30.18
2022-08-04T07:26:26.410Z,30.27
2022-08-04T07:28:53.006Z,30.32
2022-08-04T07:31:34.593Z,30.38
2022-08-04T07:34:21.083Z,30.46
2022-08-04T07:36:53.002Z,30.48
2022-08-04T07:39:29.636Z,30.49
2022-08-04T07:41:59.043Z,30.54
2022-08-04T07:44:27.918Z,30.67
2022-08-04T07:46:55.099Z,30.80
2022-08-04T07:49:56.571Z,30.93
2022-08-04T07:52:08.788Z,31.01
2022-08-04T07:54:40.008Z,31.04
2022-08-04T07:57:06.700Z,31.06
2022-08-04T07:59:35.202Z,31.07
2022-08-04T08:02:02.563Z,31.10
2022-08-04T08:04:30.063Z,31.10
2022-08-04T08:06:57.716Z,31.14
2022-08-04T08:09:24.568Z,31.11
2022-08-04T08:12:35.441Z,31.12
2022-08-04T08:14:41.385Z,31.18
2022-08-04T08:17:08.166Z,31.25
2022-08-04T08:19:35.653Z,31.30
2022-08-04T08:22:02.883Z,31.37
2022-08-04T08:24:32.509Z,31.48
2022-08-04T08:27:00.296Z,31.62
2022-08-04T08:29:29.599Z,31.74
2022-08-04T08:32:01.482Z,31.91
2022-08-04T08:34:33.016Z,32.07
2022-08-04T08:37:09.701Z,32.23
2022-08-04T08:39:43.018Z,32.41
2022-08-04T08:42:34.234Z,32.55
2022-08-04T08:45:26.247Z,32.74
2022-08-04T08:48:31.358Z,32.91
2022-08-04T08:51:47.683Z,33.08
2022-08-04T08:54:35.784Z,33.18
2022-08-04T08:57:17.310Z,33.25
2022-08-04T09:00:07.464Z,33.27
2022-08-04T09:02:44.896Z,33.29
2022-08-04T09:05:36.521Z,33.34
2022-08-04T09:08:08.878Z,33.40
2022-08-04T09:11:05.894Z,33.42
2022-08-04T09:13:41.578Z,33.53
2022-08-04T09:16:19.153Z,33.59
2022-08-04T09:19:04.461Z,33.66
2022-08-04T09:21:41.958Z,33.73
2022-08-04T09:24:36.449Z,33.74
2022-08-04T09:27:09.842Z,33.73
2022-08-04T09:29:39.324Z,33.78
2022-08-04T09:32:41.353Z,33.85
2022-08-04T09:35:33.790Z,33.94
2022-08-04T09:38:19.177Z,33.99
2022-08-04T09:40:53.449Z,34.02
2022-08-04T09:44:43.103Z,34.03
2022-08-04T09:47:10.590Z,34.07
2022-08-04T09:49:43.722Z,34.07
2022-08-04T09:52:25.397Z,34.05
2022-08-04T09:55:20.837Z,33.99
2022-08-04T09:57:58.190Z,33.98
2022-08-04T10:00:40.435Z,33.97
2022-08-04T10:03:19.669Z,33.95
2022-08-04T10:05:55.823Z,33.89
2022-08-04T10:08:57.162Z,33.78
2022-08-04T10:11:55.579Z,33.69
2022-08-04T10:14:48.003Z,33.56
2022-08-04T10:17:35.883Z,33.45
2022-08-04T10:20:44.296Z,33.32
2022-08-04T10:23:55.082Z,33.21
2022-08-04T10:26:26.191Z,33.13
2022-08-04T10:29:02.492Z,33.02
2022-08-04T10:31:35.519Z,32.87
2022-08-04T10:34:29.600Z,32.64
2022-08-04T10:37:04.367Z,32.49
2022-08-04T10:40:06.956Z,32.35
2022-08-04T10:42:37.422Z,32.22
2022-08-04T10:45:19.769Z,32.12
2022-08-04T10:48:02.481Z,32.02
2022-08-04T10:50:29.977Z,31.82
2022-08-04T10:53:03.563Z,31.55
2022-08-04T10:56:06.450Z,31.14
2022-08-04T10:58:59.910Z,30.85
2022-08-04T11:01:50.742Z,30.64
2022-08-04T11:04:37.715Z,30.46
2022-08-04T11:07:04.867Z,30.32
2022-08-04T11:09:33.944Z,30.15
2022-08-04T11:12:12.810Z,29.98
2022-08-04T11:14:53.280Z,29.86
2022-08-04T11:17:26.236Z,29.81
2022-08-04T11:23:13.994Z,29.86
2022-08-04T11:25:52.971Z,29.98
2022-08-04T11:28:30.549Z,30.10
2022-08-04T11:31:05.691Z,30.16
2022-08-04T11:34:16.046Z,30.12
2022-08-04T11:37:14.014Z,30.14
2022-08-04T11:39:47.303Z,30.10
2022-08-04T11:42:22.019Z,30.02
2022-08-04T11:45:04.848Z,29.96
2022-08-04T11:47:54.427Z,29.85
2022-08-04T11:50:27.493Z,29.75
2022-08-04T11:52:57.828Z,29.64
2022-08-04T11:55:27.087Z,29.63
2022-08-04T11:57:54.881Z,29.67
2022-08-04T12:00:22.712Z,29.76
2022-08-04T12:03:18.704Z,29.89
2022-08-04T12:06:15.660Z,30.03
2022-08-04T12:09:22.270Z,30.11
2022-08-04T12:12:13.761Z,30.29
2022-08-04T12:14:55.214Z,30.47
2022-08-04T12:17:53.448Z,30.55
2022-08-04T12:20:32.194Z,30.66
2022-08-04T12:23:17.488Z,30.78
2022-08-04T12:25:47.753Z,30.91
2022-08-04T12:28:23.383Z,31.02
2022-08-04T12:31:01.050Z,31.12
2022-08-04T12:34:04.423Z,31.23
2022-08-04T12:36:37.324Z,31.37
2022-08-04T12:39:15.783Z,31.44
2022-08-04T12:42:02.327Z,31.50
2022-08-04T12:44:37.710Z,31.54
2022-08-04T12:47:26.592Z,31.49
2022-08-04T12:50:02.300Z,31.47
2022-08-04T12:53:04.349Z,31.45
2022-08-04T12:55:35.131Z,31.50
2022-08-04T12:58:04.177Z,31.55
2022-08-04T13:00:40.808Z,31.58
2022-08-04T13:03:16.934Z,31.58
2022-08-04T13:05:45.085Z,31.56
2022-08-04T13:08:12.911Z,31.52
2022-08-04T13:10:47.824Z,31.46
2022-08-04T13:13:29.008Z,31.42
2022-08-04T13:16:00.493Z,31.39
2022-08-04T13:18:32.045Z,31.37
2022-08-04T13:21:20.108Z,31.36
2022-08-04T13:24:10.560Z,31.32
2022-08-04T13:26:55.257Z,31.31
2022-08-04T13:30:00.574Z,31.27
2022-08-04T13:32:22.229Z,31.33
2022-08-04T13:34:52.782Z,31.40
2022-08-04T13:37:26.752Z,31.50
2022-08-04T13:39:56.404Z,31.59
2022-08-04T13:42:26.513Z,31.69
2022-08-04T13:44:59.651Z,31.76
2022-08-04T13:47:34.036Z,31.81
2022-08-04T13:50:22.506Z,31.83
2022-08-04T13:52:59.354Z,31.83
2022-08-04T13:55:35.160Z,31.86
2022-08-04T13:58:09.240Z,31.92
2022-08-04T14:00:44.108Z,32.00
2022-08-04T14:03:24.140Z,32.07
2022-08-04T14:06:19.147Z,32.13
2022-08-04T14:08:51.701Z,32.29
2022-08-04T14:12:08.881Z,32.35
2022-08-04T14:14:33.801Z,32.43
2022-08-04T14:17:19.965Z,32.54
2022-08-04T14:19:47.705Z,32.64
2022-08-04T14:22:26.565Z,32.64
2022-08-04T14:25:15.811Z,32.55
2022-08-04T14:27:43.179Z,32.45
2022-08-04T14:30:32.170Z,32.34
2022-08-04T14:33:59.622Z,32.28
2022-08-04T14:36:04.182Z,32.21
2022-08-04T14:38:57.370Z,32.11
2022-08-04T14:41:29.569Z,32.11
2022-08-04T14:44:02.375Z,32.16
2022-08-04T14:46:37.015Z,32.22
2022-08-04T14:49:03.748Z,32.29
2022-08-04T14:51:55.256Z,32.34
2022-08-04T14:54:30.572Z,32.46
2022-08-04T14:57:08.670Z,32.51
2022-08-04T14:59:59.464Z,32.56
2022-08-04T15:02:30.041Z,32.64
2022-08-04T15:04:57.785Z,32.69
2022-08-04T15:07:25.478Z,32.80
2022-08-04T15:09:52.466Z,32.89
2022-08-04T15:12:20.273Z,32.92
2022-08-04T15:14:48.634Z,32.96
2022-08-04T15:17:30.220Z,32.93
2022-08-04T15:19:57.262Z,32.88
2022-08-04T15:22:24.079Z,32.84
2022-08-04T15:24:56.033Z,32.77
2022-08-04T15:27:32.507Z,32.74
2022-08-04T15:30:08.323Z,32.72
2022-08-04T15:32:38.421Z,32.74
2022-08-04T15:35:13.585Z,32.72
2022-08-04T15:37:49.485Z,32.73
2022-08-04T15:40:33.311Z,32.70
2022-08-04T15:43:29.941Z,32.72
2022-08-04T15:46:30.759Z,32.78
2022-08-04T15:48:47.341Z,32.85
2022-08-04T15:51:31.794Z,32.86
2022-08-04T15:54:02.528Z,32.88
2022-08-04T15:56:30.819Z,32.87
2022-08-04T15:58:57.651Z,32.83
2022-08-04T16:01:24.834Z,32.77
2022-08-04T16:04:25.130Z,32.67
2022-08-04T16:07:04.055Z,32.65
2022-08-04T16:09:45.139Z,32.63
2022-08-04T16:12:54.749Z,32.58
2022-08-04T16:15:56.132Z,32.50
2022-08-04T16:18:30.272Z,32.41
2022-08-04T16:21:03.903Z,32.29
2022-08-04T16:23:56.828Z,32.20
2022-08-04T16:26:45.259Z,32.14
2022-08-04T16:29:24.819Z,32.10
2022-08-04T16:32:12.636Z,32.06
2022-08-04T16:34:54.665Z,32.03
2022-08-04T16:37:29.069Z,31.94
2022-08-04T16:40:37.625Z,31.86
2022-08-04T16:43:16.752Z,31.82
2022-08-04T16:45:55.498Z,31.83
2022-08-04T16:48:29.116Z,31.84
2022-08-04T16:51:03.233Z,31.80
2022-08-04T16:54:02.870Z,31.77
2022-08-04T16:56:36.164Z,31.79
2022-08-04T16:59:11.485Z,31.77
2022-08-04T17:01:49.989Z,31.73
2022-08-04T17:04:36.561Z,31.68
2022-08-04T17:07:06.289Z,31.61
2022-08-04T17:09:33.219Z,31.58
2022-08-04T17:12:02.235Z,31.56
2022-08-04T17:14:31.348Z,31.50
2022-08-04T17:17:01.141Z,31.50
2022-08-04T17:19:27.872Z,31.47
2022-08-04T17:22:03.040Z,31.45
2022-08-04T17:24:35.084Z,31.40
2022-08-04T17:27:01.877Z,31.38
2022-08-04T17:29:42.884Z,31.32
2022-08-04T17:32:20.966Z,31.26
2022-08-04T17:35:03.586Z,31.17
2022-08-04T17:37:39.439Z,31.13
2022-08-04T17:40:11.272Z,31.09
2022-08-04T17:42:41.682Z,31.05
2022-08-04T17:48:00.772Z,30.97
2022-08-04T17:50:35.885Z,30.90
2022-08-04T17:53:11.713Z,30.81
2022-08-04T17:55:47.150Z,30.73
2022-08-04T17:58:26.851Z,30.66
2022-08-04T18:03:52.809Z,30.51
2022-08-04T18:06:23.391Z,30.43
2022-08-04T18:08:58.188Z,30.36
2022-08-04T18:11:29.785Z,30.27
2022-08-04T18:14:09.801Z,30.19
2022-08-04T18:16:45.295Z,30.11
2022-08-04T18:19:19.038Z,30.07
2022-08-04T18:21:59.585Z,30.03
2022-08-04T18:24:35.292Z,30.00
2022-08-04T18:27:22.324Z,29.95
2022-08-04T18:30:33.347Z,29.91
2022-08-04T18:32:56.426Z,29.83
2022-08-04T18:36:31.285Z,29.77
2022-08-04T18:38:22.662Z,29.68
2022-08-04T18:40:52.800Z,29.61
2022-08-04T18:43:28.547Z,29.50
2022-08-04T18:45:59.558Z,29.42
2022-08-04T18:48:35.912Z,29.36
2022-08-04T18:51:10.801Z,29.28
2022-08-04T18:56:36.723Z,29.06
2022-08-04T18:59:10.251Z,28.95
2022-08-04T19:02:16.352Z,28.85
2022-08-04T19:04:33.098Z,28.75
2022-08-04T19:07:24.479Z,28.67
2022-08-04T19:09:51.933Z,28.57
2022-08-04T19:12:26.675Z,28.51
2022-08-04T19:14:57.995Z,28.43
2022-08-04T19:17:52.525Z,28.35
2022-08-04T19:20:16.049Z,28.26
2022-08-04T19:24:28.648Z,28.18
2022-08-04T19:25:58.618Z,28.09
2022-08-04T19:28:33.944Z,28.04
2022-08-04T19:31:01.782Z,27.98
2022-08-04T19:33:30.438Z,27.91
2022-08-04T19:36:20.860Z,27.87
2022-08-04T19:38:58.147Z,27.81
2022-08-04T19:41:26.499Z,27.77
2022-08-04T19:43:54.470Z,27.72
2022-08-04T19:46:21.525Z,27.68
2022-08-04T19:48:59.021Z,27.64
2022-08-04T19:51:27.957Z,27.63
2022-08-04T19:54:02.446Z,27.64
2022-08-04T19:56:39.855Z,27.61
2022-08-04T19:59:10.914Z,27.59
2022-08-04T20:01:44.184Z,27.56
2022-08-04T20:04:12.833Z,27.52
2022-08-04T20:06:39.735Z,27.50
2022-08-04T20:09:24.459Z,27.48
2022-08-04T20:11:54.155Z,27.47
2022-08-04T20:14:32.525Z,27.48
2022-08-04T20:17:10.299Z,27.45
2022-08-04T20:19:38.061Z,27.42
2022-08-04T20:22:05.120Z,27.42
2022-08-04T20:24:46.921Z,27.42
2022-08-04T20:27:18.731Z,27.42
2022-08-04T20:29:49.890Z,27.40
2022-08-04T20:32:22.201Z,27.38
2022-08-04T20:34:53.307Z,27.35
2022-08-04T20:37:23.395Z,27.31
2022-08-04T20:39:56.094Z,27.26
2022-08-04T20:42:27.141Z,27.22
2022-08-04T20:45:02.593Z,27.20
2022-08-04T20:47:35.069Z,27.21
2022-08-04T20:50:09.480Z,27.23
2022-08-04T20:52:37.209Z,27.26
2022-08-04T20:55:05.565Z,27.27
2022-08-04T20:57:48.615Z,27.25
2022-08-04T21:00:17.645Z,27.15
2022-08-04T21:02:59.356Z,27.10
2022-08-04T21:05:26.697Z,27.02
2022-08-04T21:07:56.641Z,26.94
2022-08-04T21:10:27.043Z,26.85
2022-08-04T21:12:57.927Z,26.73
2022-08-04T21:15:26.293Z,26.58
2022-08-04T21:18:13.480Z,26.45
2022-08-04T21:20:42.858Z,26.34
2022-08-04T21:23:12.127Z,26.23
2022-08-04T21:25:42.781Z,26.09
2022-08-04T21:28:10.599Z,25.98
2022-08-04T21:30:54.592Z,25.92
2022-08-04T21:33:50.238Z,25.86
2022-08-04T21:36:16.102Z,25.78
2022-08-04T21:38:51.062Z,25.73
2022-08-04T21:41:20.383Z,25.63
2022-08-04T21:43:55.851Z,25.54
2022-08-04T21:46:22.668Z,25.43
2022-08-04T21:48:49.593Z,25.33
2022-08-04T21:51:21.772Z,25.29
2022-08-04T21:54:14.924Z,25.23
2022-08-04T21:56:51.570Z,25.21
2022-08-04T21:59:23.743Z,25.19
2022-08-04T22:01:57.916Z,25.19
2022-08-04T22:04:29.435Z,25.16
2022-08-04T22:06:56.135Z,25.12
2022-08-04T22:09:22.693Z,25.11
2022-08-04T22:11:51.791Z,25.12
2022-08-04T22:14:29.493Z,25.09
2022-08-04T22:17:02.624Z,25.03
2022-08-04T22:19:40.916Z,24.93
2022-08-04T22:22:25.217Z,24.83
2022-08-04T22:24:55.139Z,24.71
2022-08-04T22:27:43.868Z,24.61
2022-08-04T22:30:17.103Z,24.54
2022-08-04T22:33:03.469Z,24.49
2022-08-04T22:35:35.808Z,24.44
2022-08-04T22:38:24.233Z,24.47
2022-08-04T22:41:03.709Z,24.46
2022-08-04T22:43:34.645Z,24.46
2022-08-04T22:46:12.100Z,24.45
2022-08-04T22:48:39.882Z,24.47
2022-08-04T22:51:10.082Z,24.45
2022-08-04T22:53:41.949Z,24.42
2022-08-04T22:56:16.383Z,24.42
2022-08-04T22:59:03.099Z,24.41
2022-08-04T23:01:58.090Z,24.37
2022-08-04T23:04:16.874Z,24.30
2022-08-04T23:06:43.492Z,24.27
2022-08-04T23:09:15.911Z,24.26
2022-08-04T23:11:43.399Z,24.24
2022-08-04T23:14:12.493Z,24.23
2022-08-04T23:16:40.643Z,24.22
2022-08-04T23:19:12.197Z,24.21
2022-08-04T23:21:47.641Z,24.22
2022-08-04T23:24:30.404Z,24.19
2022-08-04T23:26:58.990Z,24.16
2022-08-04T23:29:25.493Z,24.13
2022-08-04T23:32:00.254Z,24.13
2022-08-04T23:34:31.419Z,24.12
2022-08-04T23:36:59.103Z,24.11
2022-08-04T23:39:26.215Z,24.14
2022-08-04T23:42:15.110Z,24.14
2022-08-04T23:44:48.614Z,24.14
2022-08-04T23:48:15.738Z,24.13
2022-08-04T23:50:01.763Z,24.16
2022-08-04T23:52:30.914Z,24.17
2022-08-04T23:55:01.104Z,24.18
2022-08-04T23:58:02.614Z,24.17
